Terminal Aerodrome Forecast
Issued by NWS

Home | Current Version | Previous Version | Text Only | Print | Product List | Glossary On
Versions: 1 2 3 4 5 6 7 8 9 10 11 12 13 14 15 16 17 18 19 20 21 22 23 24 25 26 27 28 29 30 31 32 33 34 35 36 37
000
FTPQ31 PGUM 292320
TAFGUM
TAF

TAF
PTKK 292320Z 3000/3024 16012G18KT 6SM SHRA VCTS SCT012CB BKN090
      TEMPO 3000/3004 2SM +SHRA OVC012
     FM300700 11010KT P6SM -SHRA SCT014 BKN030 BKN120
     FM301500 07008KT P6SM VCSH SCT012 SCT030 BKN120=

USA.gov is the U.S. government's official web portal to all federal, state and local government web resources and services.